Orofino, ID (83544)

12:56 PM PDT on August 28, 2015 (GMT -0700)
APRSWXNET | | Change Station
CLOSE
Current Station
Personal Weather Station
Location: Weippe, ID
Elevation: 3069 ft
Nearby Weather Stations
Active Advisory: Fire Weather Warning

Elev 3069 ft 46.38 °N, 115.95 °W | Updated 24 minutes ago

Clear
Clear
73 °F
Feels Like 77 °F
N
5
Wind Variable Wind from NW
Gusts 0.0 mph

Today
High -- | Low -- °F
--% Chance of Precip.
Yesterday
High -- | Low -- °F
Precip. -- in
5:59 AM 7:31 PM
Waxing Gibbous, 99% visible
Pressure 30.06 in
Visibility 2.0 miles
Clouds Clear
Heat Index 77 °F
Dew Point 45 °F
Humidity 37%
Rainfall in
Snow Depth Not available.
UV 9 out of 12
Pollen 7.70 out of 12
Air Quality Not available.
Flu Activity Not available.
METAR KGIC 281935Z AUTO 09007KT 2SM CLR 25/06 A3006 RMK AO1 T02480059
Pressure 30.06 in
Visibility 2.0 miles
Clouds Clear
Heat Index 77 °F
Dew Point 45 °F
Humidity 37%
Rainfall in
Snow Depth Not available.
UV 9 out of 12
Pollen 7.70 out of 12
Air Quality Not available.
Flu Activity Not available.
METAR KGIC 281935Z AUTO 09007KT 2SM CLR 25/06 A3006 RMK AO1 T02480059

10-Day Weather Forecast

×

Almanac

Astronomy

Aug. 28, 2015 Rise Set
Actual Time
Civil Twilight
Nautical Twilight
Astronomical Twilight
Moon
Length of Visible Light
Length of Day
Tomorrow will be .
, % of the Moon is Illuminated

Today's Extremes

State Highs State Lows

Community

WunderPhotos

Upload Photos

1,850,466 photos uploaded!

WunderBlogs® & News

Nearby

Air Quality

  Air Quality AQ Index Pollutant
Not available.

Snow Depth

Station Depth Elevation

Earthquake Activity

City Distance Mag. Time & Date
Minimum magnitude displayed is 2.5.

Coastal Water Temperatures

Place Temperature

Stations

Nearby Weather Stations

Station Location Temp. Windchill Dew Point Humidity Wind Precip. Elev Updated Type
                   
Fire Weather Warning
Statement as of 9:33 AM PDT on August 28, 2015

... Red flag warning in effect from 11 am to 7 PM PDT Saturday for
gusty winds and low humidities across the Palouse/Hells Canyon...
Clearwater/Nez Perce...

The National Weather Service in Missoula has issued a red flag
warning for gusty winds and low humidities... which is in effect
from 11 am to 7 PM PDT Saturday.

* Winds: breezy winds will begin Saturday morning, but the
strongest and most concerning winds will occur Saturday
afternoon. South to southwest winds will increase to 25 to 35
mph with higher gusts through the afternoon. Ridgetops and any
exposed elevations will see gusts up to 45 mph. Winds will shift
to the west and northwest during the late afternoon and evening
and decrease.

* Minimum humidities: 10 to 15 percent is expected. Humidity
recovery Saturday evening will be good.

* Thunderstorms: isolated mainly dry thunderstorms.